createdAt,value
2023-05-25T05:02:44.178Z,16.20
2023-05-25T05:05:11.392Z,16.25
2023-05-25T05:07:39.218Z,18.70
2023-05-25T05:10:07.777Z,15.68
2023-05-25T05:12:36.875Z,16.60
2023-05-25T05:15:11.641Z,19.48
2023-05-25T05:17:40.791Z,15.38
2023-05-25T05:20:09.726Z,22.35
2023-05-25T05:22:37.548Z,16.23
2023-05-25T05:25:06.539Z,21.52
2023-05-25T05:27:33.192Z,24.77
2023-05-25T05:30:09.486Z,19.58
2023-05-25T05:32:36.143Z,24.20
2023-05-25T05:35:03.541Z,22.73
2023-05-25T05:37:44.503Z,21.00
2023-05-25T05:40:12.179Z,20.33
2023-05-25T05:42:42.481Z,24.60
2023-05-25T05:45:10.563Z,30.35
2023-05-25T05:47:37.492Z,24.88
2023-05-25T05:50:05.330Z,24.50
2023-05-25T05:55:01.766Z,24.60
2023-05-25T05:57:28.900Z,23.58
2023-05-25T05:59:56.372Z,23.80
2023-05-25T06:02:23.074Z,33.05
2023-05-25T06:04:50.436Z,19.75
2023-05-25T06:07:18.146Z,25.65
2023-05-25T06:09:45.414Z,21.30
2023-05-25T06:12:12.195Z,18.70
2023-05-25T06:14:39.522Z,18.77
2023-05-25T06:17:06.297Z,19.33
2023-05-25T06:19:33.285Z,18.83
2023-05-25T06:21:59.941Z,17.08
2023-05-25T06:24:26.900Z,18.15
2023-05-25T06:26:54.180Z,18.33
2023-05-25T06:29:20.995Z,20.05
2023-05-25T06:31:48.277Z,19.58
2023-05-25T06:34:15.217Z,19.73
2023-05-25T06:36:42.806Z,16.67
2023-05-25T06:39:10.632Z,18.77
2023-05-25T06:41:38.836Z,16.20
2023-05-25T06:44:06.789Z,17.30
2023-05-25T06:46:41.352Z,22.73
2023-05-25T06:49:09.567Z,19.15
2023-05-25T06:51:37.214Z,21.40
2023-05-25T06:54:04.318Z,16.70
2023-05-25T06:56:31.929Z,16.58
2023-05-25T06:58:58.573Z,20.80
2023-05-25T07:01:26.186Z,20.60
2023-05-25T07:03:52.795Z,23.02
2023-05-25T07:06:21.048Z,21.10
2023-05-25T07:08:47.660Z,24.27
2023-05-25T07:11:14.821Z,21.15
2023-05-25T07:13:41.415Z,19.23
2023-05-25T07:16:08.806Z,18.25
2023-05-25T07:18:38.551Z,15.93
2023-05-25T07:21:06.379Z,19.75
2023-05-25T07:23:33.181Z,23.55
2023-05-25T07:26:00.533Z,18.67
2023-05-25T07:28:28.257Z,20.48
2023-05-25T07:30:55.658Z,20.30
2023-05-25T07:33:22.348Z,17.65
2023-05-25T07:35:49.602Z,15.68
2023-05-25T07:38:16.251Z,15.55
2023-05-25T07:40:44.759Z,17.77
2023-05-25T07:43:11.356Z,15.35
2023-05-25T07:45:38.712Z,27.10
2023-05-25T07:48:07.725Z,23.00
2023-05-25T07:50:35.480Z,20.35
2023-05-25T07:53:02.119Z,20.60
2023-05-25T07:55:29.468Z,21.25
2023-05-25T07:57:56.221Z,17.58
2023-05-25T08:00:54.325Z,17.92
2023-05-25T08:03:31.915Z,20.45
2023-05-25T08:06:07.454Z,20.98
2023-05-25T08:08:35.370Z,30.23
2023-05-25T08:11:02.547Z,18.85
2023-05-25T08:13:29.513Z,21.30
2023-05-25T08:15:57.028Z,21.45
2023-05-25T08:18:23.754Z,15.18
2023-05-25T08:20:51.857Z,15.57
2023-05-25T08:23:18.869Z,19.75
2023-05-25T08:25:46.663Z,15.25
2023-05-25T08:28:13.567Z,16.52
2023-05-25T08:30:41.580Z,15.25
2023-05-25T08:33:08.641Z,19.10
2023-05-25T08:35:39.767Z,16.50
2023-05-25T08:38:07.239Z,19.35
2023-05-25T08:40:35.341Z,13.00
2023-05-25T08:43:02.223Z,14.30
2023-05-25T08:45:35.724Z,17.90
2023-05-25T08:48:10.883Z,17.75
2023-05-25T08:50:39.145Z,11.23
2023-05-25T08:53:11.779Z,14.18
2023-05-25T08:55:42.618Z,20.52
2023-05-25T08:58:20.932Z,15.40
2023-05-25T09:00:56.904Z,17.52
2023-05-25T09:03:24.543Z,20.23
2023-05-25T09:05:52.400Z,15.82
2023-05-25T09:08:20.612Z,24.13
2023-05-25T09:10:49.183Z,16.75
2023-05-25T09:15:46.275Z,16.58
2023-05-25T09:18:13.250Z,15.10
2023-05-25T09:20:41.870Z,16.65
2023-05-25T09:23:17.923Z,17.38
2023-05-25T09:25:47.286Z,15.40
2023-05-25T09:28:26.197Z,17.52
2023-05-25T09:33:20.666Z,22.48
2023-05-25T09:35:48.794Z,18.17
2023-05-25T09:38:17.138Z,18.45
2023-05-25T09:40:46.272Z,23.37
2023-05-25T09:43:21.877Z,19.42
2023-05-25T09:45:55.998Z,24.98
2023-05-25T09:48:24.367Z,14.35
2023-05-25T09:50:51.943Z,14.55
2023-05-25T09:53:18.882Z,12.00
2023-05-25T09:55:53.180Z,17.15
2023-05-25T09:58:24.154Z,16.98
2023-05-25T10:00:56.251Z,12.70
2023-05-25T10:03:23.315Z,16.13
2023-05-25T10:05:56.797Z,14.82
2023-05-25T10:08:27.828Z,15.55
2023-05-25T10:10:56.287Z,15.77
2023-05-25T10:13:23.524Z,11.43
2023-05-25T10:15:54.073Z,17.63
2023-05-25T10:18:25.866Z,14.77
2023-05-25T10:21:01.261Z,12.82
2023-05-25T10:23:35.734Z,20.75
2023-05-25T10:26:06.272Z,16.88
2023-05-25T10:28:39.407Z,20.13
2023-05-25T10:31:07.454Z,17.05
2023-05-25T10:33:35.000Z,21.35
2023-05-25T10:36:37.222Z,21.95
2023-05-25T10:43:07.392Z,23.23
2023-05-25T10:45:35.742Z,23.58
2023-05-25T10:48:02.855Z,18.38
2023-05-25T10:50:35.655Z,16.38
2023-05-25T10:53:16.235Z,17.95
2023-05-25T10:56:02.329Z,19.08
2023-05-25T10:58:30.238Z,18.67
2023-05-25T11:01:08.848Z,17.90
2023-05-25T11:03:45.259Z,18.58
2023-05-25T11:06:13.887Z,17.70
2023-05-25T11:09:01.052Z,17.05
2023-05-25T11:11:53.122Z,14.82
2023-05-25T11:14:31.982Z,14.68
2023-05-25T11:17:15.989Z,14.10
2023-05-25T11:19:51.147Z,17.73
2023-05-25T11:22:31.747Z,13.18
2023-05-25T11:25:00.910Z,15.02
2023-05-25T11:27:31.693Z,17.08
2023-05-25T11:30:00.126Z,11.98
2023-05-25T11:32:28.287Z,17.35
2023-05-25T11:34:57.730Z,15.48
2023-05-25T11:37:28.867Z,15.15
2023-05-25T11:39:56.376Z,13.93
2023-05-25T11:42:24.541Z,14.43
2023-05-25T11:44:52.040Z,17.88
2023-05-25T11:47:22.976Z,13.70
2023-05-25T11:49:50.154Z,18.33
2023-05-25T11:52:18.750Z,13.13
2023-05-25T11:55:02.806Z,16.38
2023-05-25T11:57:29.584Z,15.95
2023-05-25T12:00:00.637Z,13.93
2023-05-25T12:02:27.730Z,15.50
2023-05-25T12:13:14.492Z,12.85
2023-05-25T12:15:41.939Z,13.93
2023-05-25T12:18:08.954Z,14.07
2023-05-25T12:20:38.891Z,13.15
2023-05-25T12:23:05.702Z,12.95
2023-05-25T12:25:42.612Z,13.55
2023-05-25T12:28:16.800Z,10.00
2023-05-25T12:30:44.198Z,13.40
2023-05-25T12:33:13.092Z,14.95
2023-05-25T12:35:48.261Z,12.90
2023-05-25T12:38:19.276Z,9.07
2023-05-25T12:40:46.659Z,14.93
2023-05-25T12:43:15.239Z,9.25
2023-05-25T12:45:43.158Z,10.48
2023-05-25T12:48:10.728Z,7.68
2023-05-25T12:50:38.475Z,7.93
2023-05-25T12:53:05.871Z,9.68
2023-05-25T12:55:35.968Z,8.23
2023-05-25T12:58:05.604Z,11.68
2023-05-25T13:03:01.208Z,7.72
2023-05-25T13:05:30.485Z,10.00
2023-05-25T13:07:58.163Z,9.05
2023-05-25T13:10:26.335Z,10.57
2023-05-25T13:12:55.472Z,7.28
2023-05-25T13:15:22.982Z,8.35
2023-05-25T13:17:51.227Z,9.27
2023-05-25T13:20:20.497Z,9.88
2023-05-25T13:22:49.789Z,6.80
2023-05-25T13:27:52.504Z,8.88
2023-05-25T13:30:23.169Z,12.70
2023-05-25T13:32:51.603Z,9.13
2023-05-25T13:35:23.634Z,9.75
2023-05-25T13:37:51.042Z,10.52
2023-05-25T13:40:18.295Z,10.13
2023-05-25T13:42:45.522Z,11.52
2023-05-25T13:45:13.753Z,12.73
2023-05-25T13:47:43.482Z,9.57
2023-05-25T13:50:11.550Z,9.25
2023-05-25T13:52:38.298Z,8.30
2023-05-25T13:55:06.114Z,9.65
2023-05-25T13:57:32.760Z,7.53
2023-05-25T13:59:59.598Z,11.50
2023-05-25T14:02:27.146Z,9.70
2023-05-25T14:04:53.859Z,10.88
2023-05-25T14:07:21.112Z,6.53
2023-05-25T14:09:47.731Z,9.73
2023-05-25T14:12:14.974Z,9.45
2023-05-25T14:14:41.600Z,8.43
2023-05-25T14:17:08.981Z,11.00
2023-05-25T14:19:35.807Z,7.95
2023-05-25T14:22:13.360Z,9.02
2023-05-25T14:24:42.155Z,13.02
2023-05-25T14:27:09.918Z,8.45
2023-05-25T14:29:36.931Z,12.48
2023-05-25T14:32:04.558Z,8.13
2023-05-25T14:34:31.221Z,13.07
2023-05-25T14:36:58.511Z,8.75
2023-05-25T14:39:25.143Z,8.25
2023-05-25T14:41:52.361Z,9.75
2023-05-25T14:44:18.982Z,7.05
2023-05-25T14:46:46.532Z,8.85
2023-05-25T14:49:16.886Z,5.97
2023-05-25T14:51:44.188Z,11.85
2023-05-25T14:54:13.396Z,13.55
2023-05-25T14:59:07.341Z,13.13
2023-05-25T15:01:34.926Z,13.23
2023-05-25T15:04:01.691Z,9.98
2023-05-25T15:06:29.083Z,14.68
2023-05-25T15:08:55.739Z,11.35
2023-05-25T15:11:23.139Z,12.93
2023-05-25T15:13:49.794Z,13.90
2023-05-25T15:16:17.343Z,11.23
2023-05-25T15:18:44.806Z,11.05
2023-05-25T15:21:12.103Z,11.93
2023-05-25T15:23:38.723Z,11.63
2023-05-25T15:26:07.956Z,12.27
2023-05-25T15:28:35.038Z,15.55
2023-05-25T15:31:03.440Z,13.38
2023-05-25T15:33:47.186Z,11.70
2023-05-25T15:36:17.197Z,10.43
2023-05-25T15:38:44.490Z,11.60
2023-05-25T15:41:15.696Z,12.25
2023-05-25T15:43:42.373Z,13.15
2023-05-25T15:46:09.339Z,9.55
2023-05-25T15:48:36.019Z,10.20
2023-05-25T15:51:03.082Z,11.20
2023-05-25T15:53:30.376Z,18.05
2023-05-25T15:55:57.529Z,13.18
2023-05-25T15:58:24.148Z,11.65
2023-05-25T16:00:51.418Z,12.02
2023-05-25T16:03:18.216Z,11.43
2023-05-25T16:05:46.109Z,15.00
2023-05-25T16:08:13.984Z,13.65
2023-05-25T16:10:41.239Z,18.95
2023-05-25T16:13:08.049Z,13.18
2023-05-25T16:15:34.975Z,13.32
2023-05-25T16:18:01.745Z,11.38
2023-05-25T16:20:29.016Z,16.55
2023-05-25T16:22:55.736Z,22.48
2023-05-25T16:25:23.229Z,19.08
2023-05-25T16:27:49.846Z,35.40
2023-05-25T16:30:16.835Z,61.42
2023-05-25T16:32:43.605Z,34.45
2023-05-25T16:35:10.716Z,18.27
2023-05-25T16:37:37.361Z,16.00
2023-05-25T16:40:04.948Z,10.95
2023-05-25T16:42:31.622Z,18.65
2023-05-25T16:44:58.563Z,20.27
2023-05-25T16:47:25.411Z,12.45
2023-05-25T16:49:52.390Z,21.95
2023-05-25T16:52:18.998Z,16.63
2023-05-25T16:54:45.947Z,17.40
2023-05-25T16:57:12.557Z,18.02
2023-05-25T16:59:40.092Z,13.88
2023-05-25T17:02:06.885Z,18.60
2023-05-25T17:04:33.875Z,12.05
2023-05-25T17:07:00.489Z,14.10
2023-05-25T17:09:27.990Z,13.85
2023-05-25T17:11:59.343Z,20.38
2023-05-25T17:14:27.106Z,15.88
2023-05-25T17:16:53.735Z,15.23
2023-05-25T17:19:20.757Z,11.50
2023-05-25T17:21:48.106Z,16.52
2023-05-25T17:24:15.390Z,15.27
2023-05-25T17:26:42.011Z,22.42
2023-05-25T17:29:09.267Z,18.88
2023-05-25T17:31:35.956Z,19.90
2023-05-25T17:34:03.496Z,15.88
2023-05-25T17:36:30.095Z,18.35
2023-05-25T17:38:57.412Z,12.60
2023-05-25T17:41:24.181Z,18.00
2023-05-25T17:43:51.448Z,19.45
2023-05-25T17:46:18.186Z,24.20
2023-05-25T17:48:46.037Z,17.83
2023-05-25T17:51:12.777Z,19.58
2023-05-25T17:53:40.034Z,17.67
2023-05-25T17:56:06.849Z,17.80
2023-05-25T17:58:34.174Z,21.55
2023-05-25T18:01:01.016Z,17.10
2023-05-25T18:03:28.434Z,21.08
2023-05-25T18:05:55.163Z,16.90
2023-05-25T18:08:22.485Z,22.48
2023-05-25T18:10:50.537Z,20.08
2023-05-25T18:13:17.800Z,18.00
2023-05-25T18:15:44.553Z,25.48
2023-05-25T18:18:12.101Z,18.45
2023-05-25T18:20:38.810Z,22.77
2023-05-25T18:23:08.435Z,25.20
2023-05-25T18:25:35.060Z,21.80
2023-05-25T18:28:02.317Z,19.40
2023-05-25T18:30:28.950Z,22.67
2023-05-25T18:32:56.290Z,17.55
2023-05-25T18:35:22.976Z,26.70
2023-05-25T18:37:50.300Z,22.13
2023-05-25T18:40:17.012Z,19.60
2023-05-25T18:42:44.294Z,18.65
2023-05-25T18:45:11.018Z,21.38
2023-05-25T18:47:38.702Z,16.42
2023-05-25T18:50:05.814Z,20.58
2023-05-25T18:52:33.095Z,18.58
2023-05-25T18:54:59.800Z,13.45
2023-05-25T18:57:26.912Z,18.10
2023-05-25T18:59:54.193Z,20.60
2023-05-25T19:02:21.323Z,20.38
2023-05-25T19:04:48.662Z,17.73
2023-05-25T19:07:15.837Z,20.85
2023-05-25T19:09:49.320Z,20.60
2023-05-25T19:12:16.128Z,17.92
2023-05-25T19:14:43.450Z,19.05
2023-05-25T19:17:10.367Z,17.42
2023-05-25T19:19:37.861Z,27.60
2023-05-25T19:22:04.671Z,19.77
2023-05-25T19:24:32.312Z,21.08
2023-05-25T19:26:58.987Z,21.85
2023-05-25T19:29:26.395Z,21.83
2023-05-25T19:31:53.196Z,23.35
2023-05-25T19:34:20.529Z,22.77
2023-05-25T19:36:51.509Z,26.25
2023-05-25T19:39:23.908Z,22.48
2023-05-25T19:41:50.756Z,18.00
2023-05-25T19:44:17.983Z,24.00
2023-05-25T19:46:44.597Z,28.67
2023-05-25T19:49:11.899Z,20.58
2023-05-25T19:51:38.583Z,29.85
2023-05-25T19:54:05.893Z,29.65
2023-05-25T19:56:32.536Z,26.08
2023-05-25T19:58:59.885Z,24.38
2023-05-25T20:01:26.569Z,22.88
2023-05-25T20:03:54.024Z,31.83
2023-05-25T20:06:20.654Z,26.25
2023-05-25T20:08:47.970Z,22.77
2023-05-25T20:11:14.760Z,22.58
2023-05-25T20:13:42.139Z,24.83
2023-05-25T20:16:10.390Z,14.50
2023-05-25T20:18:38.415Z,19.20
2023-05-25T20:21:05.335Z,21.45
2023-05-25T20:23:32.572Z,28.17
2023-05-25T20:25:59.293Z,25.52
2023-05-25T20:28:26.476Z,19.33
